sensor_id;sensor_type;location;lat;lon;timestamp;temperature;humidity
18160;DHT22;9205;52.032;4.314;2023-03-03T00:00:53;4.00;1.00
18160;DHT22;9205;52.032;4.314;2023-03-03T00:03:23;4.00;1.00
18160;DHT22;9205;52.032;4.314;2023-03-03T00:05:52;3.80;1.00
18160;DHT22;9205;52.032;4.314;2023-03-03T00:08:22;4.00;1.00
18160;DHT22;9205;52.032;4.314;2023-03-03T00:10:52;3.80;1.00
18160;DHT22;9205;52.032;4.314;2023-03-03T00:13:24;3.80;1.00
18160;DHT22;9205;52.032;4.314;2023-03-03T00:16:10;3.80;1.00
18160;DHT22;9205;52.032;4.314;2023-03-03T00:18:48;3.80;1.00
18160;DHT22;9205;52.032;4.314;2023-03-03T00:21:39;3.80;1.00
18160;DHT22;9205;52.032;4.314;2023-03-03T00:24:17;3.80;1.00
18160;DHT22;9205;52.032;4.314;2023-03-03T00:26:47;3.60;1.00
18160;DHT22;9205;52.032;4.314;2023-03-03T00:29:27;3.70;1.00
18160;DHT22;9205;52.032;4.314;2023-03-03T00:32:20;3.70;1.00
18160;DHT22;9205;52.032;4.314;2023-03-03T00:35:00;3.80;1.00
18160;DHT22;9205;52.032;4.314;2023-03-03T00:37:44;3.80;1.00
18160;DHT22;9205;52.032;4.314;2023-03-03T00:40:20;3.70;1.00
18160;DHT22;9205;52.032;4.314;2023-03-03T00:42:51;3.70;1.00
18160;DHT22;9205;52.032;4.314;2023-03-03T00:45:27;3.80;1.00
18160;DHT22;9205;52.032;4.314;2023-03-03T00:48:07;3.80;1.00
18160;DHT22;9205;52.032;4.314;2023-03-03T00:50:45;3.70;1.00
18160;DHT22;9205;52.032;4.314;2023-03-03T00:53:18;3.60;1.00
18160;DHT22;9205;52.032;4.314;2023-03-03T00:55:51;3.80;1.00
18160;DHT22;9205;52.032;4.314;2023-03-03T00:58:21;3.60;1.00
18160;DHT22;9205;52.032;4.314;2023-03-03T01:00:55;3.60;1.00
18160;DHT22;9205;52.032;4.314;2023-03-03T01:03:36;3.70;1.00
18160;DHT22;9205;52.032;4.314;2023-03-03T01:06:09;3.60;1.00
18160;DHT22;9205;52.032;4.314;2023-03-03T01:08:38;3.70;1.00
18160;DHT22;9205;52.032;4.314;2023-03-03T01:11:39;3.70;1.00
18160;DHT22;9205;52.032;4.314;2023-03-03T01:14:59;3.60;1.00
18160;DHT22;9205;52.032;4.314;2023-03-03T01:18:04;3.80;1.00
18160;DHT22;9205;52.032;4.314;2023-03-03T01:20:35;3.80;1.00
18160;DHT22;9205;52.032;4.314;2023-03-03T01:23:31;3.80;1.00
18160;DHT22;9205;52.032;4.314;2023-03-03T01:25:59;3.80;1.00
18160;DHT22;9205;52.032;4.314;2023-03-03T01:28:29;3.80;1.00
18160;DHT22;9205;52.032;4.314;2023-03-03T01:31:02;3.60;1.00
18160;DHT22;9205;52.032;4.314;2023-03-03T01:33:36;3.70;1.00
18160;DHT22;9205;52.032;4.314;2023-03-03T01:36:08;3.90;1.00
18160;DHT22;9205;52.032;4.314;2023-03-03T01:38:37;3.80;1.00
18160;DHT22;9205;52.032;4.314;2023-03-03T01:41:06;3.70;1.00
18160;DHT22;9205;52.032;4.314;2023-03-03T01:43:45;3.60;1.00
18160;DHT22;9205;52.032;4.314;2023-03-03T01:46:49;3.60;1.00
18160;DHT22;9205;52.032;4.314;2023-03-03T01:49:27;3.80;1.00
18160;DHT22;9205;52.032;4.314;2023-03-03T01:52:01;3.60;1.00
18160;DHT22;9205;52.032;4.314;2023-03-03T01:54:38;3.80;1.00
18160;DHT22;9205;52.032;4.314;2023-03-03T01:57:13;3.60;1.00
18160;DHT22;9205;52.032;4.314;2023-03-03T01:59:49;3.70;1.00
18160;DHT22;9205;52.032;4.314;2023-03-03T02:02:22;3.80;1.00
18160;DHT22;9205;52.032;4.314;2023-03-03T02:04:52;3.70;1.00
18160;DHT22;9205;52.032;4.314;2023-03-03T02:07:26;3.70;1.00
18160;DHT22;9205;52.032;4.314;2023-03-03T02:10:06;3.60;1.00
18160;DHT22;9205;52.032;4.314;2023-03-03T02:12:41;3.70;1.00
18160;DHT22;9205;52.032;4.314;2023-03-03T02:15:24;3.70;1.00
18160;DHT22;9205;52.032;4.314;2023-03-03T02:17:55;3.60;1.00
18160;DHT22;9205;52.032;4.314;2023-03-03T02:20:37;3.60;1.00
18160;DHT22;9205;52.032;4.314;2023-03-03T02:23:17;3.60;1.00
18160;DHT22;9205;52.032;4.314;2023-03-03T02:26:03;3.50;1.00
18160;DHT22;9205;52.032;4.314;2023-03-03T02:28:35;3.40;1.00
18160;DHT22;9205;52.032;4.314;2023-03-03T02:31:08;3.60;1.00
18160;DHT22;9205;52.032;4.314;2023-03-03T02:33:41;3.50;1.00
18160;DHT22;9205;52.032;4.314;2023-03-03T02:36:12;3.60;1.00
18160;DHT22;9205;52.032;4.314;2023-03-03T02:38:47;3.60;1.00
18160;DHT22;9205;52.032;4.314;2023-03-03T02:41:31;3.40;1.00
18160;DHT22;9205;52.032;4.314;2023-03-03T02:44:07;3.60;1.00
18160;DHT22;9205;52.032;4.314;2023-03-03T02:46:40;3.50;1.00
18160;DHT22;9205;52.032;4.314;2023-03-03T02:49:12;3.40;1.00
18160;DHT22;9205;52.032;4.314;2023-03-03T02:51:49;3.40;1.00
18160;DHT22;9205;52.032;4.314;2023-03-03T02:55:21;3.60;1.00
18160;DHT22;9205;52.032;4.314;2023-03-03T02:57:45;3.50;1.00
18160;DHT22;9205;52.032;4.314;2023-03-03T03:00:16;3.60;1.00
18160;DHT22;9205;52.032;4.314;2023-03-03T03:02:44;3.40;1.00
18160;DHT22;9205;52.032;4.314;2023-03-03T03:05:12;3.50;1.00
18160;DHT22;9205;52.032;4.314;2023-03-03T03:07:42;3.60;1.00
18160;DHT22;9205;52.032;4.314;2023-03-03T03:10:10;3.30;1.00
18160;DHT22;9205;52.032;4.314;2023-03-03T03:12:39;3.40;1.00
18160;DHT22;9205;52.032;4.314;2023-03-03T03:15:11;3.40;1.00
18160;DHT22;9205;52.032;4.314;2023-03-03T03:17:41;3.50;1.00
18160;DHT22;9205;52.032;4.314;2023-03-03T03:20:11;3.50;1.00
18160;DHT22;9205;52.032;4.314;2023-03-03T03:22:39;3.50;1.00
18160;DHT22;9205;52.032;4.314;2023-03-03T03:25:09;3.30;1.00
18160;DHT22;9205;52.032;4.314;2023-03-03T03:27:37;3.30;1.00
18160;DHT22;9205;52.032;4.314;2023-03-03T03:30:07;3.40;1.00
18160;DHT22;9205;52.032;4.314;2023-03-03T03:32:37;3.40;1.00
18160;DHT22;9205;52.032;4.314;2023-03-03T03:35:06;3.30;1.00
18160;DHT22;9205;52.032;4.314;2023-03-03T03:37:36;3.60;1.00
18160;DHT22;9205;52.032;4.314;2023-03-03T03:40:08;3.30;1.00
18160;DHT22;9205;52.032;4.314;2023-03-03T03:42:37;3.30;1.00
18160;DHT22;9205;52.032;4.314;2023-03-03T03:45:07;3.50;1.00
18160;DHT22;9205;52.032;4.314;2023-03-03T03:47:50;3.50;1.00
18160;DHT22;9205;52.032;4.314;2023-03-03T03:50:21;3.20;1.00
18160;DHT22;9205;52.032;4.314;2023-03-03T03:52:49;3.30;1.00
18160;DHT22;9205;52.032;4.314;2023-03-03T03:55:18;3.40;1.00
18160;DHT22;9205;52.032;4.314;2023-03-03T03:57:50;3.30;1.00
18160;DHT22;9205;52.032;4.314;2023-03-03T04:00:21;3.20;1.00
18160;DHT22;9205;52.032;4.314;2023-03-03T04:02:56;3.40;1.00
18160;DHT22;9205;52.032;4.314;2023-03-03T04:05:26;3.50;1.00
18160;DHT22;9205;52.032;4.314;2023-03-03T04:07:54;3.20;1.00
18160;DHT22;9205;52.032;4.314;2023-03-03T04:10:27;3.10;1.00
18160;DHT22;9205;52.032;4.314;2023-03-03T04:12:56;3.30;1.00
18160;DHT22;9205;52.032;4.314;2023-03-03T04:15:24;3.30;1.00
18160;DHT22;9205;52.032;4.314;2023-03-03T04:18:00;3.30;1.00
18160;DHT22;9205;52.032;4.314;2023-03-03T04:20:27;3.30;1.00
18160;DHT22;9205;52.032;4.314;2023-03-03T04:22:56;3.30;1.00
18160;DHT22;9205;52.032;4.314;2023-03-03T04:25:24;3.30;1.00
18160;DHT22;9205;52.032;4.314;2023-03-03T04:27:53;3.10;1.00
18160;DHT22;9205;52.032;4.314;2023-03-03T04:30:22;3.10;1.00
18160;DHT22;9205;52.032;4.314;2023-03-03T04:32:53;3.10;1.00
18160;DHT22;9205;52.032;4.314;2023-03-03T04:35:25;3.20;1.00
18160;DHT22;9205;52.032;4.314;2023-03-03T04:37:53;3.30;1.00
18160;DHT22;9205;52.032;4.314;2023-03-03T04:40:22;3.30;1.00
18160;DHT22;9205;52.032;4.314;2023-03-03T04:42:53;3.00;1.00
18160;DHT22;9205;52.032;4.314;2023-03-03T04:45:24;3.20;1.00
18160;DHT22;9205;52.032;4.314;2023-03-03T04:47:51;3.20;1.00
18160;DHT22;9205;52.032;4.314;2023-03-03T04:50:22;2.90;1.00
18160;DHT22;9205;52.032;4.314;2023-03-03T04:52:51;3.10;1.00
18160;DHT22;9205;52.032;4.314;2023-03-03T04:55:23;2.90;1.00
18160;DHT22;9205;52.032;4.314;2023-03-03T04:57:51;3.10;1.00
18160;DHT22;9205;52.032;4.314;2023-03-03T05:00:19;2.90;1.00
18160;DHT22;9205;52.032;4.314;2023-03-03T05:02:47;2.80;1.00
18160;DHT22;9205;52.032;4.314;2023-03-03T05:05:21;2.70;1.00
18160;DHT22;9205;52.032;4.314;2023-03-03T05:07:48;2.80;1.00
18160;DHT22;9205;52.032;4.314;2023-03-03T05:10:21;3.00;1.00
18160;DHT22;9205;52.032;4.314;2023-03-03T05:12:51;2.80;1.00
18160;DHT22;9205;52.032;4.314;2023-03-03T05:15:18;2.90;1.00
18160;DHT22;9205;52.032;4.314;2023-03-03T05:17:49;2.90;1.00
18160;DHT22;9205;52.032;4.314;2023-03-03T05:20:24;2.90;1.00
18160;DHT22;9205;52.032;4.314;2023-03-03T05:22:53;2.70;1.00
18160;DHT22;9205;52.032;4.314;2023-03-03T05:25:24;2.90;1.00
18160;DHT22;9205;52.032;4.314;2023-03-03T05:27:52;2.90;1.00
18160;DHT22;9205;52.032;4.314;2023-03-03T05:30:20;2.80;1.00
18160;DHT22;9205;52.032;4.314;2023-03-03T05:32:48;2.90;1.00
18160;DHT22;9205;52.032;4.314;2023-03-03T05:35:16;2.70;1.50
18160;DHT22;9205;52.032;4.314;2023-03-03T05:37:46;2.80;2.60
18160;DHT22;9205;52.032;4.314;2023-03-03T05:40:17;2.70;5.00
18160;DHT22;9205;52.032;4.314;2023-03-03T05:42:48;2.80;6.80
18160;DHT22;9205;52.032;4.314;2023-03-03T05:45:21;2.80;9.30
18160;DHT22;9205;52.032;4.314;2023-03-03T05:47:50;2.60;12.70
18160;DHT22;9205;52.032;4.314;2023-03-03T05:50:19;2.60;22.30
18160;DHT22;9205;52.032;4.314;2023-03-03T05:52:53;2.60;29.40
18160;DHT22;9205;52.032;4.314;2023-03-03T05:55:22;2.70;36.40
18160;DHT22;9205;52.032;4.314;2023-03-03T05:57:50;2.60;46.80
18160;DHT22;9205;52.032;4.314;2023-03-03T06:00:21;2.80;56.90
18160;DHT22;9205;52.032;4.314;2023-03-03T06:02:52;2.70;67.60
18160;DHT22;9205;52.032;4.314;2023-03-03T06:05:20;2.80;84.00
18160;DHT22;9205;52.032;4.314;2023-03-03T06:07:47;2.80;90.00
18160;DHT22;9205;52.032;4.314;2023-03-03T06:10:15;2.90;94.60
18160;DHT22;9205;52.032;4.314;2023-03-03T06:12:48;2.50;99.90
18160;DHT22;9205;52.032;4.314;2023-03-03T06:15:19;2.60;99.90
18160;DHT22;9205;52.032;4.314;2023-03-03T06:17:46;2.50;99.90
18160;DHT22;9205;52.032;4.314;2023-03-03T06:20:14;2.70;99.90
18160;DHT22;9205;52.032;4.314;2023-03-03T06:22:42;2.80;99.90
18160;DHT22;9205;52.032;4.314;2023-03-03T06:25:10;2.70;99.90
18160;DHT22;9205;52.032;4.314;2023-03-03T06:27:37;2.60;99.90
18160;DHT22;9205;52.032;4.314;2023-03-03T06:30:08;2.90;99.90
18160;DHT22;9205;52.032;4.314;2023-03-03T06:32:37;3.00;99.90
18160;DHT22;9205;52.032;4.314;2023-03-03T06:35:06;3.00;99.90
18160;DHT22;9205;52.032;4.314;2023-03-03T06:37:34;3.00;99.90
18160;DHT22;9205;52.032;4.314;2023-03-03T06:40:02;3.00;99.90
18160;DHT22;9205;52.032;4.314;2023-03-03T06:42:31;2.90;99.90
18160;DHT22;9205;52.032;4.314;2023-03-03T06:44:58;3.00;99.90
18160;DHT22;9205;52.032;4.314;2023-03-03T06:47:28;3.00;99.90
18160;DHT22;9205;52.032;4.314;2023-03-03T06:49:56;2.60;99.90
18160;DHT22;9205;52.032;4.314;2023-03-03T06:52:28;2.70;99.90
18160;DHT22;9205;52.032;4.314;2023-03-03T06:55:10;2.90;99.90
18160;DHT22;9205;52.032;4.314;2023-03-03T06:57:41;3.00;99.90
18160;DHT22;9205;52.032;4.314;2023-03-03T07:00:16;2.70;99.90
18160;DHT22;9205;52.032;4.314;2023-03-03T07:02:56;2.80;99.90
18160;DHT22;9205;52.032;4.314;2023-03-03T07:05:26;2.90;99.90
18160;DHT22;9205;52.032;4.314;2023-03-03T07:07:55;2.80;99.90
18160;DHT22;9205;52.032;4.314;2023-03-03T07:10:24;2.80;99.90
18160;DHT22;9205;52.032;4.314;2023-03-03T07:12:56;2.60;99.90
18160;DHT22;9205;52.032;4.314;2023-03-03T07:15:34;2.80;99.90
18160;DHT22;9205;52.032;4.314;2023-03-03T07:18:24;2.80;99.90
18160;DHT22;9205;52.032;4.314;2023-03-03T07:21:11;2.70;99.90
18160;DHT22;9205;52.032;4.314;2023-03-03T07:23:47;2.70;99.90
18160;DHT22;9205;52.032;4.314;2023-03-03T07:26:20;2.90;99.90
18160;DHT22;9205;52.032;4.314;2023-03-03T07:28:55;3.00;99.90
18160;DHT22;9205;52.032;4.314;2023-03-03T07:31:28;2.80;99.90
18160;DHT22;9205;52.032;4.314;2023-03-03T07:34:19;2.80;99.90
18160;DHT22;9205;52.032;4.314;2023-03-03T07:36:48;2.80;99.90
18160;DHT22;9205;52.032;4.314;2023-03-03T07:39:26;2.90;99.90
18160;DHT22;9205;52.032;4.314;2023-03-03T07:42:23;3.20;99.90
18160;DHT22;9205;52.032;4.314;2023-03-03T07:45:23;3.30;99.90
18160;DHT22;9205;52.032;4.314;2023-03-03T07:47:58;3.20;99.90
18160;DHT22;9205;52.032;4.314;2023-03-03T07:50:35;3.40;99.90
18160;DHT22;9205;52.032;4.314;2023-03-03T07:53:04;3.10;99.90
18160;DHT22;9205;52.032;4.314;2023-03-03T07:55:39;3.40;99.90
18160;DHT22;9205;52.032;4.314;2023-03-03T07:58:19;3.30;99.90
18160;DHT22;9205;52.032;4.314;2023-03-03T08:04:16;3.00;99.90
18160;DHT22;9205;52.032;4.314;2023-03-03T08:06:52;3.00;99.90
18160;DHT22;9205;52.032;4.314;2023-03-03T08:09:47;3.10;99.90
18160;DHT22;9205;52.032;4.314;2023-03-03T08:12:36;3.10;99.90
18160;DHT22;9205;52.032;4.314;2023-03-03T08:15:55;3.10;99.90
18160;DHT22;9205;52.032;4.314;2023-03-03T08:18:34;3.60;99.90
18160;DHT22;9205;52.032;4.314;2023-03-03T08:21:27;3.50;99.90
18160;DHT22;9205;52.032;4.314;2023-03-03T08:27:06;3.50;99.90
18160;DHT22;9205;52.032;4.314;2023-03-03T08:30:13;3.10;99.90
18160;DHT22;9205;52.032;4.314;2023-03-03T08:32:44;3.60;99.90
18160;DHT22;9205;52.032;4.314;2023-03-03T08:35:14;3.30;99.90
18160;DHT22;9205;52.032;4.314;2023-03-03T08:37:51;3.60;99.90
18160;DHT22;9205;52.032;4.314;2023-03-03T08:40:35;3.40;99.90
18160;DHT22;9205;52.032;4.314;2023-03-03T08:43:19;3.50;99.90
18160;DHT22;9205;52.032;4.314;2023-03-03T08:45:48;3.70;99.90
18160;DHT22;9205;52.032;4.314;2023-03-03T08:48:29;3.70;99.90
18160;DHT22;9205;52.032;4.314;2023-03-03T08:51:02;3.70;99.90
18160;DHT22;9205;52.032;4.314;2023-03-03T08:53:34;4.00;99.90
18160;DHT22;9205;52.032;4.314;2023-03-03T08:56:13;4.00;99.90
18160;DHT22;9205;52.032;4.314;2023-03-03T08:58:44;3.90;99.90
18160;DHT22;9205;52.032;4.314;2023-03-03T09:01:16;4.30;99.90
18160;DHT22;9205;52.032;4.314;2023-03-03T09:03:46;3.90;99.90
18160;DHT22;9205;52.032;4.314;2023-03-03T09:06:14;4.00;99.90
18160;DHT22;9205;52.032;4.314;2023-03-03T09:08:42;4.10;99.90
18160;DHT22;9205;52.032;4.314;2023-03-03T09:11:18;4.50;99.90
18160;DHT22;9205;52.032;4.314;2023-03-03T09:13:58;4.50;99.90
18160;DHT22;9205;52.032;4.314;2023-03-03T09:16:51;4.60;99.90
18160;DHT22;9205;52.032;4.314;2023-03-03T09:19:26;4.10;99.90
18160;DHT22;9205;52.032;4.314;2023-03-03T09:22:10;4.20;99.90
18160;DHT22;9205;52.032;4.314;2023-03-03T09:24:48;4.70;99.90
18160;DHT22;9205;52.032;4.314;2023-03-03T09:27:33;4.60;99.90
18160;DHT22;9205;52.032;4.314;2023-03-03T09:30:30;4.80;99.90
18160;DHT22;9205;52.032;4.314;2023-03-03T09:33:40;4.80;99.90
18160;DHT22;9205;52.032;4.314;2023-03-03T09:37:27;4.70;99.90
18160;DHT22;9205;52.032;4.314;2023-03-03T09:42:50;4.90;99.90
18160;DHT22;9205;52.032;4.314;2023-03-03T09:46:19;5.10;99.90
18160;DHT22;9205;52.032;4.314;2023-03-03T09:49:15;5.10;99.90
18160;DHT22;9205;52.032;4.314;2023-03-03T09:52:09;5.10;99.90
18160;DHT22;9205;52.032;4.314;2023-03-03T09:55:05;5.10;99.90
18160;DHT22;9205;52.032;4.314;2023-03-03T10:01:20;5.50;99.90
18160;DHT22;9205;52.032;4.314;2023-03-03T10:04:21;5.30;99.90
18160;DHT22;9205;52.032;4.314;2023-03-03T10:07:24;5.70;99.90
18160;DHT22;9205;52.032;4.314;2023-03-03T10:10:20;5.80;99.90
18160;DHT22;9205;52.032;4.314;2023-03-03T10:13:15;5.70;99.90
18160;DHT22;9205;52.032;4.314;2023-03-03T10:16:08;5.80;99.90
18160;DHT22;9205;52.032;4.314;2023-03-03T10:18:54;5.80;99.90
18160;DHT22;9205;52.032;4.314;2023-03-03T10:21:34;5.90;99.90
18160;DHT22;9205;52.032;4.314;2023-03-03T10:24:19;5.90;99.90
18160;DHT22;9205;52.032;4.314;2023-03-03T10:27:12;6.00;99.90
18160;DHT22;9205;52.032;4.314;2023-03-03T10:30:03;6.40;99.90
18160;DHT22;9205;52.032;4.314;2023-03-03T10:32:48;6.50;99.90
18160;DHT22;9205;52.032;4.314;2023-03-03T10:35:29;6.50;99.90
18160;DHT22;9205;52.032;4.314;2023-03-03T10:38:42;6.60;99.90
18160;DHT22;9205;52.032;4.314;2023-03-03T10:41:35;6.60;99.90
18160;DHT22;9205;52.032;4.314;2023-03-03T10:44:34;6.60;92.00
18160;DHT22;9205;52.032;4.314;2023-03-03T10:47:47;6.90;32.70
18160;DHT22;9205;52.032;4.314;2023-03-03T10:50:39;7.10;1.00
18160;DHT22;9205;52.032;4.314;2023-03-03T10:53:26;7.30;1.00
18160;DHT22;9205;52.032;4.314;2023-03-03T10:56:11;7.20;1.00
18160;DHT22;9205;52.032;4.314;2023-03-03T10:58:59;7.30;1.00
18160;DHT22;9205;52.032;4.314;2023-03-03T11:01:44;7.40;1.00
18160;DHT22;9205;52.032;4.314;2023-03-03T11:04:47;7.40;1.00
18160;DHT22;9205;52.032;4.314;2023-03-03T11:07:32;7.50;1.00
18160;DHT22;9205;52.032;4.314;2023-03-03T11:10:23;7.60;1.00
18160;DHT22;9205;52.032;4.314;2023-03-03T11:13:22;7.70;1.00
18160;DHT22;9205;52.032;4.314;2023-03-03T11:16:16;7.70;1.00
18160;DHT22;9205;52.032;4.314;2023-03-03T11:19:25;7.70;1.00
18160;DHT22;9205;52.032;4.314;2023-03-03T11:22:21;7.90;1.00
18160;DHT22;9205;52.032;4.314;2023-03-03T11:25:11;8.10;1.00
18160;DHT22;9205;52.032;4.314;2023-03-03T11:28:11;8.00;1.00
18160;DHT22;9205;52.032;4.314;2023-03-03T11:31:34;8.30;1.00
18160;DHT22;9205;52.032;4.314;2023-03-03T11:34:18;8.40;99.90
18160;DHT22;9205;52.032;4.314;2023-03-03T11:37:04;8.40;1.00
18160;DHT22;9205;52.032;4.314;2023-03-03T11:39:39;8.30;99.90
18160;DHT22;9205;52.032;4.314;2023-03-03T11:42:18;8.20;1.00
18160;DHT22;9205;52.032;4.314;2023-03-03T11:46:31;8.40;1.00
18160;DHT22;9205;52.032;4.314;2023-03-03T11:47:53;8.50;1.00
18160;DHT22;9205;52.032;4.314;2023-03-03T11:50:28;8.40;99.90
18160;DHT22;9205;52.032;4.314;2023-03-03T11:53:23;8.40;1.00
18160;DHT22;9205;52.032;4.314;2023-03-03T11:56:03;8.40;1.00
18160;DHT22;9205;52.032;4.314;2023-03-03T11:58:43;8.30;99.90
18160;DHT22;9205;52.032;4.314;2023-03-03T12:01:24;8.20;57.40
18160;DHT22;9205;52.032;4.314;2023-03-03T12:04:02;8.10;67.10
18160;DHT22;9205;52.032;4.314;2023-03-03T12:10:09;7.80;1.00
18160;DHT22;9205;52.032;4.314;2023-03-03T12:13:23;7.70;1.00
18160;DHT22;9205;52.032;4.314;2023-03-03T12:16:06;7.70;1.00
18160;DHT22;9205;52.032;4.314;2023-03-03T12:19:00;7.80;1.00
18160;DHT22;9205;52.032;4.314;2023-03-03T12:21:55;7.80;1.00
18160;DHT22;9205;52.032;4.314;2023-03-03T12:25:26;7.70;1.00
18160;DHT22;9205;52.032;4.314;2023-03-03T12:28:05;7.70;1.00
18160;DHT22;9205;52.032;4.314;2023-03-03T12:34:24;7.70;1.00
18160;DHT22;9205;52.032;4.314;2023-03-03T12:37:20;7.60;1.00
18160;DHT22;9205;52.032;4.314;2023-03-03T12:44:29;7.70;1.00
18160;DHT22;9205;52.032;4.314;2023-03-03T12:51:33;7.80;1.00
18160;DHT22;9205;52.032;4.314;2023-03-03T12:54:48;7.80;99.90
18160;DHT22;9205;52.032;4.314;2023-03-03T12:57:46;7.90;1.00
18160;DHT22;9205;52.032;4.314;2023-03-03T13:01:29;7.90;1.00
18160;DHT22;9205;52.032;4.314;2023-03-03T13:04:25;8.00;99.90
18160;DHT22;9205;52.032;4.314;2023-03-03T13:07:03;7.90;1.00
18160;DHT22;9205;52.032;4.314;2023-03-03T13:13:00;8.00;99.90
18160;DHT22;9205;52.032;4.314;2023-03-03T13:19:32;8.10;99.90
18160;DHT22;9205;52.032;4.314;2023-03-03T13:22:14;8.20;1.00
18160;DHT22;9205;52.032;4.314;2023-03-03T13:25:44;8.10;1.00
18160;DHT22;9205;52.032;4.314;2023-03-03T13:28:46;8.10;1.00
18160;DHT22;9205;52.032;4.314;2023-03-03T13:32:07;8.20;1.00
18160;DHT22;9205;52.032;4.314;2023-03-03T13:34:48;8.30;1.00
18160;DHT22;9205;52.032;4.314;2023-03-03T13:37:34;8.20;1.00
18160;DHT22;9205;52.032;4.314;2023-03-03T13:44:14;8.30;99.90
18160;DHT22;9205;52.032;4.314;2023-03-03T13:47:36;8.30;99.90
18160;DHT22;9205;52.032;4.314;2023-03-03T14:01:00;8.20;1.00
18160;DHT22;9205;52.032;4.314;2023-03-03T14:04:07;8.20;99.90
18160;DHT22;9205;52.032;4.314;2023-03-03T14:07:05;8.30;99.90
18160;DHT22;9205;52.032;4.314;2023-03-03T14:09:57;8.10;1.00
18160;DHT22;9205;52.032;4.314;2023-03-03T14:12:54;8.20;1.00
18160;DHT22;9205;52.032;4.314;2023-03-03T14:15:41;8.10;74.60
18160;DHT22;9205;52.032;4.314;2023-03-03T14:18:29;8.10;1.00
18160;DHT22;9205;52.032;4.314;2023-03-03T14:21:08;8.10;1.00
18160;DHT22;9205;52.032;4.314;2023-03-03T14:24:01;8.10;1.00
18160;DHT22;9205;52.032;4.314;2023-03-03T14:29:49;8.10;1.00
18160;DHT22;9205;52.032;4.314;2023-03-03T14:32:28;8.10;1.00
18160;DHT22;9205;52.032;4.314;2023-03-03T14:35:16;8.20;26.90
18160;DHT22;9205;52.032;4.314;2023-03-03T14:37:49;8.20;3.90
18160;DHT22;9205;52.032;4.314;2023-03-03T14:40:29;8.30;99.90
18160;DHT22;9205;52.032;4.314;2023-03-03T14:43:22;8.20;1.00
18160;DHT22;9205;52.032;4.314;2023-03-03T14:45:54;8.20;1.00
18160;DHT22;9205;52.032;4.314;2023-03-03T14:48:38;8.10;1.00
18160;DHT22;9205;52.032;4.314;2023-03-03T14:51:29;8.00;1.00
18160;DHT22;9205;52.032;4.314;2023-03-03T14:57:53;7.90;1.00
18160;DHT22;9205;52.032;4.314;2023-03-03T15:00:47;8.00;1.00
18160;DHT22;9205;52.032;4.314;2023-03-03T15:04:09;8.00;1.00
18160;DHT22;9205;52.032;4.314;2023-03-03T15:06:59;8.00;11.90
18160;DHT22;9205;52.032;4.314;2023-03-03T15:10:11;8.00;1.00
18160;DHT22;9205;52.032;4.314;2023-03-03T15:16:11;8.00;1.00
18160;DHT22;9205;52.032;4.314;2023-03-03T15:22:20;7.80;99.90
18160;DHT22;9205;52.032;4.314;2023-03-03T15:25:29;7.80;99.90
18160;DHT22;9205;52.032;4.314;2023-03-03T15:31:49;7.80;99.90
18160;DHT22;9205;52.032;4.314;2023-03-03T15:34:38;7.70;1.00
18160;DHT22;9205;52.032;4.314;2023-03-03T15:37:39;7.70;1.00
18160;DHT22;9205;52.032;4.314;2023-03-03T15:40:24;7.80;1.00
18160;DHT22;9205;52.032;4.314;2023-03-03T15:43:10;7.80;1.00
18160;DHT22;9205;52.032;4.314;2023-03-03T15:46:04;7.80;1.00
18160;DHT22;9205;52.032;4.314;2023-03-03T15:48:52;7.60;1.00
18160;DHT22;9205;52.032;4.314;2023-03-03T15:51:58;7.60;1.00
18160;DHT22;9205;52.032;4.314;2023-03-03T15:54:44;7.70;1.00
18160;DHT22;9205;52.032;4.314;2023-03-03T15:57:36;7.70;92.60
18160;DHT22;9205;52.032;4.314;2023-03-03T16:00:42;7.60;1.00
18160;DHT22;9205;52.032;4.314;2023-03-03T16:03:32;7.60;1.00
18160;DHT22;9205;52.032;4.314;2023-03-03T16:06:11;7.60;1.00
18160;DHT22;9205;52.032;4.314;2023-03-03T16:08:48;7.50;1.00
18160;DHT22;9205;52.032;4.314;2023-03-03T16:11:37;7.60;1.00
18160;DHT22;9205;52.032;4.314;2023-03-03T16:14:32;7.40;1.00
18160;DHT22;9205;52.032;4.314;2023-03-03T16:17:23;7.40;1.00
18160;DHT22;9205;52.032;4.314;2023-03-03T16:20:18;7.40;1.00
18160;DHT22;9205;52.032;4.314;2023-03-03T16:23:23;7.30;99.90
18160;DHT22;9205;52.032;4.314;2023-03-03T16:26:09;7.30;1.00
18160;DHT22;9205;52.032;4.314;2023-03-03T16:29:19;7.30;1.00
18160;DHT22;9205;52.032;4.314;2023-03-03T16:32:07;7.20;99.90
18160;DHT22;9205;52.032;4.314;2023-03-03T16:34:57;7.10;99.90
18160;DHT22;9205;52.032;4.314;2023-03-03T16:37:36;7.10;99.90
18160;DHT22;9205;52.032;4.314;2023-03-03T16:40:12;7.10;99.90
18160;DHT22;9205;52.032;4.314;2023-03-03T16:43:04;7.10;99.90
18160;DHT22;9205;52.032;4.314;2023-03-03T16:45:41;7.10;99.90
18160;DHT22;9205;52.032;4.314;2023-03-03T16:48:27;7.10;99.90
18160;DHT22;9205;52.032;4.314;2023-03-03T16:51:22;7.10;99.90
18160;DHT22;9205;52.032;4.314;2023-03-03T16:54:07;7.00;99.90
18160;DHT22;9205;52.032;4.314;2023-03-03T16:56:56;7.00;1.00
18160;DHT22;9205;52.032;4.314;2023-03-03T16:59:50;7.10;1.00
18160;DHT22;9205;52.032;4.314;2023-03-03T17:06:43;7.00;1.00
18160;DHT22;9205;52.032;4.314;2023-03-03T17:12:37;6.90;99.90
18160;DHT22;9205;52.032;4.314;2023-03-03T17:15:28;6.90;1.00
18160;DHT22;9205;52.032;4.314;2023-03-03T17:18:13;7.00;1.00
18160;DHT22;9205;52.032;4.314;2023-03-03T17:20:56;7.00;1.00
18160;DHT22;9205;52.032;4.314;2023-03-03T17:23:56;7.00;1.00
18160;DHT22;9205;52.032;4.314;2023-03-03T17:26:56;7.00;1.00
18160;DHT22;9205;52.032;4.314;2023-03-03T17:29:49;7.00;1.00
18160;DHT22;9205;52.032;4.314;2023-03-03T17:32:51;7.00;1.00
18160;DHT22;9205;52.032;4.314;2023-03-03T17:35:48;7.00;1.00
18160;DHT22;9205;52.032;4.314;2023-03-03T17:38:35;7.00;1.00
18160;DHT22;9205;52.032;4.314;2023-03-03T17:41:27;7.00;99.90
18160;DHT22;9205;52.032;4.314;2023-03-03T17:44:12;7.00;99.90
18160;DHT22;9205;52.032;4.314;2023-03-03T17:46:48;7.00;1.00
18160;DHT22;9205;52.032;4.314;2023-03-03T17:49:30;7.00;99.90
18160;DHT22;9205;52.032;4.314;2023-03-03T17:52:50;6.90;99.90
18160;DHT22;9205;52.032;4.314;2023-03-03T17:59:04;6.90;1.00
18160;DHT22;9205;52.032;4.314;2023-03-03T18:01:54;6.80;1.00
18160;DHT22;9205;52.032;4.314;2023-03-03T18:05:03;6.80;1.00
18160;DHT22;9205;52.032;4.314;2023-03-03T18:08:12;6.80;1.00
18160;DHT22;9205;52.032;4.314;2023-03-03T18:11:14;6.80;1.00
18160;DHT22;9205;52.032;4.314;2023-03-03T18:17:45;6.80;99.90
18160;DHT22;9205;52.032;4.314;2023-03-03T18:20:41;6.80;99.90
18160;DHT22;9205;52.032;4.314;2023-03-03T18:23:48;6.80;99.90
18160;DHT22;9205;52.032;4.314;2023-03-03T18:26:39;6.80;99.90
18160;DHT22;9205;52.032;4.314;2023-03-03T18:29:21;6.80;99.90
18160;DHT22;9205;52.032;4.314;2023-03-03T18:32:18;6.80;99.90
18160;DHT22;9205;52.032;4.314;2023-03-03T18:35:20;6.80;1.00
18160;DHT22;9205;52.032;4.314;2023-03-03T18:38:24;6.80;1.00
18160;DHT22;9205;52.032;4.314;2023-03-03T18:41:10;6.80;99.90
18160;DHT22;9205;52.032;4.314;2023-03-03T18:44:01;6.80;1.00
18160;DHT22;9205;52.032;4.314;2023-03-03T18:46:56;6.80;1.00
18160;DHT22;9205;52.032;4.314;2023-03-03T18:49:54;6.70;1.00
18160;DHT22;9205;52.032;4.314;2023-03-03T18:52:34;6.80;1.00
18160;DHT22;9205;52.032;4.314;2023-03-03T18:55:25;6.70;99.90
18160;DHT22;9205;52.032;4.314;2023-03-03T18:58:12;6.80;99.90
18160;DHT22;9205;52.032;4.314;2023-03-03T19:00:57;6.70;99.90
18160;DHT22;9205;52.032;4.314;2023-03-03T19:03:32;6.80;1.00
18160;DHT22;9205;52.032;4.314;2023-03-03T19:09:57;6.80;1.00
18160;DHT22;9205;52.032;4.314;2023-03-03T19:12:50;6.80;1.00
18160;DHT22;9205;52.032;4.314;2023-03-03T19:15:43;6.70;1.00
18160;DHT22;9205;52.032;4.314;2023-03-03T19:18:24;6.80;1.00